Nevzat Kalkavan — TCMO2 — position and weather

sailwx.info

Track history (hours):
 
Tides and Currents Weather Stations Pressure Air Temp Water Temp Dewpoint Dewpoint Depression Visibility Wind Speed Wind Dir Waves Ship Positions

Nevzat Kalkavan

Last reported at 2017-Nov-24 16:30 UTC. Time now 2017-Nov-24 16:50 UTC.
Position N 36°51' W 076°20'.

Length 183 m; draft 8.6 m.

Type: Ship (hazmat cat D). MMSI: 271042759.

Date/timePositionNaut miles runAvg speedWind from/ knotsBaromVisibWave heightAir tempDewpointWater temp
2017-Nov-24 16:30N 36°51' W 076°20'0 0.0
2017-Nov-24 15:57N 36°51' W 076°20'0 0.0
2017-Nov-24 15:30N 36°51' W 076°20'0 0.0
2017-Nov-24 15:00N 36°51' W 076°20'0 0.0
2017-Nov-24 14:30N 36°51' W 076°20'0 0.0
2017-Nov-24 14:00N 36°51' W 076°20'0 0.0
2017-Nov-24 13:27N 36°51' W 076°20'0 0.0
2017-Nov-24 12:57N 36°51' W 076°20'0 0.0
2017-Nov-24 12:30N 36°51' W 076°20'0 0.0
2017-Nov-24 12:00N 36°51' W 076°20'0 0.7
2017-Nov-24 11:27N 36°52' W 076°19'2 4.5
2017-Nov-24 11:01N 36°54' W 076°20'5 9.2
2017-Nov-24 10:31N 36°58' W 076°20'714.0
2017-Nov-24 10:00N 36°60' W 076°11'816.1
2017-Nov-24 09:30N 36°57' W 076°02'5 9.5
2017-Nov-24 09:00N 36°56' W 075°56'4 7.0
2017-Nov-24 08:30N 36°53' W 075°53'4 8.5
2017-Nov-24 08:00N 36°51' W 075°49'18912.4
2017-Nov-23 16:43N 39°36' W 073°53'516.0
2017-Nov-23 16:25N 39°41' W 073°52'715.8
2017-Nov-23 16:00N 39°48' W 073°51'3611.5
2017-Nov-23 12:52N 40°24' W 073°49'4 8.6
2017-Nov-23 12:22N 40°28' W 073°51'4 9.5
2017-Nov-23 11:56N 40°30' W 073°56'613.4
2017-Nov-23 11:30N 40°33' W 074°02'612.3
2017-Nov-23 11:00N 40°39' W 074°05'3 6.5
2017-Nov-23 10:31N 40°39' W 074°09'1 2.2
2017-Nov-23 09:59N 40°40' W 074°09'0 0.0
2017-Nov-23 09:26N 40°40' W 074°09'0 0.0
2017-Nov-23 08:59N 40°40' W 074°09'0 0.0
2017-Nov-23 08:29N 40°40' W 074°09'0 0.0
2017-Nov-23 07:59N 40°40' W 074°09'0 0.0
2017-Nov-23 07:29N 40°40' W 074°09'0 0.0
2017-Nov-23 06:59N 40°40' W 074°09'0 0.0
2017-Nov-23 06:29N 40°40' W 074°09'0 0.0
2017-Nov-23 05:59N 40°40' W 074°09'0 0.0
2017-Nov-23 05:29N 40°40' W 074°09'0 0.0
2017-Nov-23 04:56N 40°40' W 074°09'0 0.0
2017-Nov-23 04:29N 40°40' W 074°09'0 0.0
2017-Nov-23 03:59N 40°40' W 074°09'0 0.0
2017-Nov-23 03:29N 40°40' W 074°09'0 0.0
2017-Nov-23 02:56N 40°40' W 074°09'0 0.0
2017-Nov-23 02:29N 40°40' W 074°09'0 0.0
2017-Nov-23 01:56N 40°40' W 074°09'0 0.0
2017-Nov-23 01:29N 40°40' W 074°09'0 0.0
2017-Nov-23 00:59N 40°40' W 074°09'0 0.0
2017-Nov-23 00:29N 40°40' W 074°09'0 0.0
2017-Nov-22 23:59N 40°40' W 074°09'0 0.0
2017-Nov-22 23:29N 40°40' W 074°09'0 0.0
2017-Nov-22 22:59N 40°40' W 074°09'0 0.0
2017-Nov-22 22:29N 40°40' W 074°09'0 0.0
2017-Nov-22 21:56N 40°40' W 074°09'0 0.0
2017-Nov-22 21:26N 40°40' W 074°09'0 0.0
2017-Nov-22 20:59N 40°40' W 074°09'0 0.0
2017-Nov-22 20:29N 40°40' W 074°09'0 0.0
2017-Nov-22 19:59N 40°40' W 074°09'0 0.0
2017-Nov-22 19:29N 40°40' W 074°09'  
2017-Nov-19 10:00N 35°48' W 057°30'33013.2 340 / 181017.410.8 21.018.018.0
2017-Nov-18 09:00N 35°06' W 050°48'51814.0 230 / 211009.010.8 21.016.419.0
2017-Nov-16 20:00N 37°30' W 040°30'77615.2 230 / 221012.810.8 20.016.919.0
2017-Nov-14 17:01N 37°55' W 024°10'  
Track history (hours):
 
Tides and Currents Weather Stations Pressure Air Temp Water Temp Dewpoint Dewpoint Depression Visibility Wind Speed Wind Dir Waves Ship Positions

Nevzat Kalkavan

Last reported at 2017-Nov-24 16:30 UTC. Time now 2017-Nov-24 16:50 UTC.
Position N 36°51' W 076°20'.

Length 183 m; draft 8.6 m.

Type: Ship (hazmat cat D). MMSI: 271042759.

Date/timePositionNaut miles runAvg speedWind from/ knotsBaromVisibWave heightAir tempDewpointWater temp
2017-Nov-24 16:30N 36°51' W 076°20'0 0.0
2017-Nov-24 15:57N 36°51' W 076°20'0 0.0
2017-Nov-24 15:30N 36°51' W 076°20'0 0.0
2017-Nov-24 15:00N 36°51' W 076°20'0 0.0
2017-Nov-24 14:30N 36°51' W 076°20'0 0.0
2017-Nov-24 14:00N 36°51' W 076°20'0 0.0
2017-Nov-24 13:27N 36°51' W 076°20'0 0.0
2017-Nov-24 12:57N 36°51' W 076°20'0 0.0
2017-Nov-24 12:30N 36°51' W 076°20'0 0.0
2017-Nov-24 12:00N 36°51' W 076°20'0 0.7
2017-Nov-24 11:27N 36°52' W 076°19'2 4.5
2017-Nov-24 11:01N 36°54' W 076°20'5 9.2
2017-Nov-24 10:31N 36°58' W 076°20'714.0
2017-Nov-24 10:00N 36°60' W 076°11'816.1
2017-Nov-24 09:30N 36°57' W 076°02'5 9.5
2017-Nov-24 09:00N 36°56' W 075°56'4 7.0
2017-Nov-24 08:30N 36°53' W 075°53'4 8.5
2017-Nov-24 08:00N 36°51' W 075°49'18912.4
2017-Nov-23 16:43N 39°36' W 073°53'516.0
2017-Nov-23 16:25N 39°41' W 073°52'715.8
2017-Nov-23 16:00N 39°48' W 073°51'3611.5
2017-Nov-23 12:52N 40°24' W 073°49'4 8.6
2017-Nov-23 12:22N 40°28' W 073°51'4 9.5
2017-Nov-23 11:56N 40°30' W 073°56'613.4
2017-Nov-23 11:30N 40°33' W 074°02'612.3
2017-Nov-23 11:00N 40°39' W 074°05'3 6.5
2017-Nov-23 10:31N 40°39' W 074°09'1 2.2
2017-Nov-23 09:59N 40°40' W 074°09'0 0.0
2017-Nov-23 09:26N 40°40' W 074°09'0 0.0
2017-Nov-23 08:59N 40°40' W 074°09'0 0.0
2017-Nov-23 08:29N 40°40' W 074°09'0 0.0
2017-Nov-23 07:59N 40°40' W 074°09'0 0.0
2017-Nov-23 07:29N 40°40' W 074°09'0 0.0
2017-Nov-23 06:59N 40°40' W 074°09'0 0.0
2017-Nov-23 06:29N 40°40' W 074°09'0 0.0
2017-Nov-23 05:59N 40°40' W 074°09'0 0.0
2017-Nov-23 05:29N 40°40' W 074°09'0 0.0
2017-Nov-23 04:56N 40°40' W 074°09'0 0.0
2017-Nov-23 04:29N 40°40' W 074°09'0 0.0
2017-Nov-23 03:59N 40°40' W 074°09'0 0.0
2017-Nov-23 03:29N 40°40' W 074°09'0 0.0
2017-Nov-23 02:56N 40°40' W 074°09'0 0.0
2017-Nov-23 02:29N 40°40' W 074°09'0 0.0
2017-Nov-23 01:56N 40°40' W 074°09'0 0.0
2017-Nov-23 01:29N 40°40' W 074°09'0 0.0
2017-Nov-23 00:59N 40°40' W 074°09'0 0.0
2017-Nov-23 00:29N 40°40' W 074°09'0 0.0
2017-Nov-22 23:59N 40°40' W 074°09'0 0.0
2017-Nov-22 23:29N 40°40' W 074°09'0 0.0
2017-Nov-22 22:59N 40°40' W 074°09'0 0.0
2017-Nov-22 22:29N 40°40' W 074°09'0 0.0
2017-Nov-22 21:56N 40°40' W 074°09'0 0.0
2017-Nov-22 21:26N 40°40' W 074°09'0 0.0
2017-Nov-22 20:59N 40°40' W 074°09'0 0.0
2017-Nov-22 20:29N 40°40' W 074°09'0 0.0
2017-Nov-22 19:59N 40°40' W 074°09'0 0.0
2017-Nov-22 19:29N 40°40' W 074°09'  
2017-Nov-19 10:00N 35°48' W 057°30'33013.2 340 / 181017.410.8 21.018.018.0
2017-Nov-18 09:00N 35°06' W 050°48'51814.0 230 / 211009.010.8 21.016.419.0
2017-Nov-16 20:00N 37°30' W 040°30'77615.2 230 / 221012.810.8 20.016.919.0
2017-Nov-14 17:01N 37°55' W 024°10'  

Dump ship's entire track history